Terminal Aerodrome Forecast
Issued by NWS

Home | Current Version | Previous Version | Text Only | Print | Product List | Glossary On
Versions: 1 2 3 4 5 6 7 8 9 10 11 12 13 14
000
FTUS41 KBTV 270531
TAFMPV
TAF
KMPV 270531Z 2706/2806 30005KT P6SM VCSH BKN020 OVC035
      TEMPO 2706/2710 6SM -SHRA BR BKN015
     FM271000 31004KT 5SM -SHRA BR BKN015 OVC025
     FM271600 33008KT 6SM -SHRA BR BKN028 OVC040
     FM272300 32007KT P6SM OVC040=

USA.gov is the U.S. government's official web portal to all federal, state and local government web resources and services.